sensor_id;sensor_type;location;lat;lon;timestamp;P1;durP1;ratioP1;P2;durP2;ratioP2
25982;SDS011;13773;48.868;10.730;2023-05-29T00:00:46;6.77;;;3.67;;
25982;SDS011;13773;48.868;10.730;2023-05-29T00:03:12;3.93;;;3.30;;
25982;SDS011;13773;48.868;10.730;2023-05-29T00:05:38;5.70;;;3.53;;
25982;SDS011;13773;48.868;10.730;2023-05-29T00:08:04;5.63;;;3.47;;
25982;SDS011;13773;48.868;10.730;2023-05-29T00:10:30;6.33;;;3.67;;
25982;SDS011;13773;48.868;10.730;2023-05-29T00:12:56;5.90;;;3.20;;
25982;SDS011;13773;48.868;10.730;2023-05-29T00:15:22;8.83;;;4.00;;
25982;SDS011;13773;48.868;10.730;2023-05-29T00:17:48;5.77;;;3.57;;
25982;SDS011;13773;48.868;10.730;2023-05-29T00:20:14;6.50;;;3.70;;
25982;SDS011;13773;48.868;10.730;2023-05-29T00:22:40;6.53;;;3.50;;
25982;SDS011;13773;48.868;10.730;2023-05-29T00:25:07;6.53;;;3.60;;
25982;SDS011;13773;48.868;10.730;2023-05-29T00:27:34;6.20;;;3.50;;
25982;SDS011;13773;48.868;10.730;2023-05-29T00:30:00;6.20;;;3.80;;
25982;SDS011;13773;48.868;10.730;2023-05-29T00:32:26;4.80;;;3.57;;
25982;SDS011;13773;48.868;10.730;2023-05-29T00:34:52;5.93;;;3.47;;
25982;SDS011;13773;48.868;10.730;2023-05-29T00:37:19;8.03;;;3.50;;
25982;SDS011;13773;48.868;10.730;2023-05-29T00:39:48;6.70;;;3.50;;
25982;SDS011;13773;48.868;10.730;2023-05-29T00:42:14;5.10;;;3.23;;
25982;SDS011;13773;48.868;10.730;2023-05-29T00:44:40;5.23;;;3.17;;
25982;SDS011;13773;48.868;10.730;2023-05-29T00:47:05;4.97;;;3.60;;
25982;SDS011;13773;48.868;10.730;2023-05-29T00:49:32;7.67;;;3.93;;
25982;SDS011;13773;48.868;10.730;2023-05-29T00:52:01;5.70;;;3.70;;
25982;SDS011;13773;48.868;10.730;2023-05-29T00:54:28;6.37;;;3.73;;
25982;SDS011;13773;48.868;10.730;2023-05-29T00:56:56;4.50;;;3.43;;
25982;SDS011;13773;48.868;10.730;2023-05-29T00:59:22;5.47;;;3.50;;
25982;SDS011;13773;48.868;10.730;2023-05-29T01:01:49;4.73;;;3.43;;
25982;SDS011;13773;48.868;10.730;2023-05-29T01:04:16;4.40;;;3.27;;
25982;SDS011;13773;48.868;10.730;2023-05-29T01:06:42;7.03;;;3.70;;
25982;SDS011;13773;48.868;10.730;2023-05-29T01:09:09;4.93;;;3.63;;
25982;SDS011;13773;48.868;10.730;2023-05-29T01:14:33;6.87;;;3.23;;
25982;SDS011;13773;48.868;10.730;2023-05-29T01:25:19;6.27;;;4.10;;
25982;SDS011;13773;48.868;10.730;2023-05-29T01:28:01;6.10;;;4.27;;
25982;SDS011;13773;48.868;10.730;2023-05-29T01:30:29;5.83;;;3.40;;
25982;SDS011;13773;48.868;10.730;2023-05-29T01:32:57;7.50;;;4.03;;
25982;SDS011;13773;48.868;10.730;2023-05-29T01:35:24;6.30;;;4.07;;
25982;SDS011;13773;48.868;10.730;2023-05-29T01:37:50;8.53;;;4.13;;
25982;SDS011;13773;48.868;10.730;2023-05-29T01:40:15;9.10;;;3.90;;
25982;SDS011;13773;48.868;10.730;2023-05-29T01:42:41;6.10;;;3.80;;
25982;SDS011;13773;48.868;10.730;2023-05-29T01:45:08;5.80;;;3.90;;
25982;SDS011;13773;48.868;10.730;2023-05-29T01:47:34;5.63;;;3.73;;
25982;SDS011;13773;48.868;10.730;2023-05-29T01:50:01;6.10;;;3.43;;
25982;SDS011;13773;48.868;10.730;2023-05-29T01:52:30;7.23;;;4.10;;
25982;SDS011;13773;48.868;10.730;2023-05-29T01:54:56;7.23;;;3.87;;
25982;SDS011;13773;48.868;10.730;2023-05-29T01:57:22;5.20;;;3.53;;
25982;SDS011;13773;48.868;10.730;2023-05-29T01:59:49;5.60;;;3.57;;
25982;SDS011;13773;48.868;10.730;2023-05-29T02:02:15;6.53;;;3.77;;
25982;SDS011;13773;48.868;10.730;2023-05-29T02:04:41;6.17;;;3.87;;
25982;SDS011;13773;48.868;10.730;2023-05-29T02:07:07;6.03;;;4.03;;
25982;SDS011;13773;48.868;10.730;2023-05-29T02:09:34;5.30;;;3.77;;
25982;SDS011;13773;48.868;10.730;2023-05-29T02:12:00;8.03;;;3.73;;
25982;SDS011;13773;48.868;10.730;2023-05-29T02:14:27;8.13;;;3.53;;
25982;SDS011;13773;48.868;10.730;2023-05-29T02:16:52;5.37;;;3.50;;
25982;SDS011;13773;48.868;10.730;2023-05-29T02:19:18;5.90;;;3.80;;
25982;SDS011;13773;48.868;10.730;2023-05-29T02:21:44;5.80;;;3.77;;
25982;SDS011;13773;48.868;10.730;2023-05-29T02:24:12;10.03;;;3.53;;
25982;SDS011;13773;48.868;10.730;2023-05-29T02:26:37;5.90;;;3.70;;
25982;SDS011;13773;48.868;10.730;2023-05-29T02:29:03;5.13;;;3.50;;
25982;SDS011;13773;48.868;10.730;2023-05-29T02:31:32;5.80;;;3.97;;
25982;SDS011;13773;48.868;10.730;2023-05-29T02:33:58;5.77;;;3.97;;
25982;SDS011;13773;48.868;10.730;2023-05-29T02:36:24;7.23;;;3.57;;
25982;SDS011;13773;48.868;10.730;2023-05-29T02:38:50;7.23;;;3.80;;
25982;SDS011;13773;48.868;10.730;2023-05-29T02:41:16;6.83;;;3.30;;
25982;SDS011;13773;48.868;10.730;2023-05-29T02:43:42;4.83;;;3.37;;
25982;SDS011;13773;48.868;10.730;2023-05-29T02:46:07;6.93;;;3.50;;
25982;SDS011;13773;48.868;10.730;2023-05-29T02:48:33;8.07;;;3.57;;
25982;SDS011;13773;48.868;10.730;2023-05-29T02:50:58;4.50;;;3.40;;
25982;SDS011;13773;48.868;10.730;2023-05-29T02:53:24;6.33;;;3.80;;
25982;SDS011;13773;48.868;10.730;2023-05-29T02:55:50;5.17;;;3.57;;
25982;SDS011;13773;48.868;10.730;2023-05-29T02:58:16;7.30;;;3.70;;
25982;SDS011;13773;48.868;10.730;2023-05-29T03:00:42;6.03;;;3.63;;
25982;SDS011;13773;48.868;10.730;2023-05-29T03:03:08;5.30;;;3.40;;
25982;SDS011;13773;48.868;10.730;2023-05-29T03:05:34;7.70;;;3.63;;
25982;SDS011;13773;48.868;10.730;2023-05-29T03:08:00;4.80;;;3.23;;
25982;SDS011;13773;48.868;10.730;2023-05-29T03:10:25;5.03;;;3.47;;
25982;SDS011;13773;48.868;10.730;2023-05-29T03:12:51;5.57;;;3.80;;
25982;SDS011;13773;48.868;10.730;2023-05-29T03:15:17;5.33;;;3.57;;
25982;SDS011;13773;48.868;10.730;2023-05-29T03:17:45;6.13;;;3.37;;
25982;SDS011;13773;48.868;10.730;2023-05-29T03:20:11;9.03;;;3.90;;
25982;SDS011;13773;48.868;10.730;2023-05-29T03:22:38;5.57;;;3.23;;
25982;SDS011;13773;48.868;10.730;2023-05-29T03:25:04;5.23;;;3.87;;
25982;SDS011;13773;48.868;10.730;2023-05-29T03:27:31;7.43;;;3.57;;
25982;SDS011;13773;48.868;10.730;2023-05-29T03:29:57;6.40;;;3.40;;
25982;SDS011;13773;48.868;10.730;2023-05-29T03:32:24;4.80;;;3.10;;
25982;SDS011;13773;48.868;10.730;2023-05-29T03:34:49;5.03;;;3.37;;
25982;SDS011;13773;48.868;10.730;2023-05-29T03:37:15;5.50;;;3.33;;
25982;SDS011;13773;48.868;10.730;2023-05-29T03:39:41;4.70;;;2.93;;
25982;SDS011;13773;48.868;10.730;2023-05-29T03:42:07;6.53;;;3.33;;
25982;SDS011;13773;48.868;10.730;2023-05-29T03:44:33;5.90;;;3.47;;
25982;SDS011;13773;48.868;10.730;2023-05-29T03:46:58;6.70;;;3.47;;
25982;SDS011;13773;48.868;10.730;2023-05-29T03:49:24;6.27;;;3.20;;
25982;SDS011;13773;48.868;10.730;2023-05-29T03:51:50;6.10;;;3.67;;
25982;SDS011;13773;48.868;10.730;2023-05-29T03:54:16;4.70;;;3.20;;
25982;SDS011;13773;48.868;10.730;2023-05-29T03:56:41;5.20;;;3.53;;
25982;SDS011;13773;48.868;10.730;2023-05-29T03:59:07;5.43;;;3.47;;
25982;SDS011;13773;48.868;10.730;2023-05-29T04:01:33;6.50;;;3.97;;
25982;SDS011;13773;48.868;10.730;2023-05-29T04:03:59;5.90;;;4.63;;
25982;SDS011;13773;48.868;10.730;2023-05-29T04:06:25;6.63;;;5.33;;
25982;SDS011;13773;48.868;10.730;2023-05-29T04:08:51;6.97;;;5.47;;
25982;SDS011;13773;48.868;10.730;2023-05-29T04:11:17;9.27;;;5.47;;
25982;SDS011;13773;48.868;10.730;2023-05-29T04:13:45;8.60;;;5.83;;
25982;SDS011;13773;48.868;10.730;2023-05-29T04:16:13;9.57;;;5.93;;
25982;SDS011;13773;48.868;10.730;2023-05-29T04:18:39;7.80;;;5.40;;
25982;SDS011;13773;48.868;10.730;2023-05-29T04:21:05;8.60;;;5.77;;
25982;SDS011;13773;48.868;10.730;2023-05-29T04:23:31;7.37;;;5.43;;
25982;SDS011;13773;48.868;10.730;2023-05-29T04:25:57;9.70;;;5.80;;
25982;SDS011;13773;48.868;10.730;2023-05-29T04:28:23;6.90;;;5.57;;
25982;SDS011;13773;48.868;10.730;2023-05-29T04:30:49;6.37;;;3.70;;
25982;SDS011;13773;48.868;10.730;2023-05-29T04:33:15;5.33;;;4.33;;
25982;SDS011;13773;48.868;10.730;2023-05-29T04:35:42;5.63;;;3.30;;
25982;SDS011;13773;48.868;10.730;2023-05-29T04:38:08;6.60;;;3.80;;
25982;SDS011;13773;48.868;10.730;2023-05-29T04:40:38;5.13;;;3.60;;
25982;SDS011;13773;48.868;10.730;2023-05-29T04:43:05;6.53;;;3.50;;
25982;SDS011;13773;48.868;10.730;2023-05-29T04:45:31;6.93;;;4.00;;
25982;SDS011;13773;48.868;10.730;2023-05-29T04:47:56;4.30;;;3.80;;
25982;SDS011;13773;48.868;10.730;2023-05-29T04:50:22;7.23;;;3.57;;
25982;SDS011;13773;48.868;10.730;2023-05-29T04:52:49;5.80;;;3.30;;
25982;SDS011;13773;48.868;10.730;2023-05-29T04:55:15;4.90;;;3.03;;
25982;SDS011;13773;48.868;10.730;2023-05-29T04:57:41;6.83;;;3.70;;
25982;SDS011;13773;48.868;10.730;2023-05-29T05:00:07;5.23;;;3.50;;
25982;SDS011;13773;48.868;10.730;2023-05-29T05:02:38;6.93;;;3.43;;
25982;SDS011;13773;48.868;10.730;2023-05-29T05:05:06;6.10;;;3.70;;
25982;SDS011;13773;48.868;10.730;2023-05-29T05:07:33;6.63;;;4.17;;
25982;SDS011;13773;48.868;10.730;2023-05-29T05:09:59;4.27;;;2.97;;
25982;SDS011;13773;48.868;10.730;2023-05-29T05:12:24;6.00;;;3.23;;
25982;SDS011;13773;48.868;10.730;2023-05-29T05:14:50;6.23;;;3.13;;
25982;SDS011;13773;48.868;10.730;2023-05-29T05:17:16;5.43;;;3.60;;
25982;SDS011;13773;48.868;10.730;2023-05-29T05:19:42;7.33;;;3.77;;
25982;SDS011;13773;48.868;10.730;2023-05-29T05:22:07;6.43;;;3.47;;
25982;SDS011;13773;48.868;10.730;2023-05-29T05:24:33;3.90;;;3.13;;
25982;SDS011;13773;48.868;10.730;2023-05-29T05:27:00;5.00;;;3.30;;
25982;SDS011;13773;48.868;10.730;2023-05-29T05:29:25;5.20;;;4.00;;
25982;SDS011;13773;48.868;10.730;2023-05-29T05:31:51;5.57;;;4.93;;
25982;SDS011;13773;48.868;10.730;2023-05-29T05:34:17;6.37;;;5.13;;
25982;SDS011;13773;48.868;10.730;2023-05-29T05:36:42;7.90;;;5.63;;
25982;SDS011;13773;48.868;10.730;2023-05-29T05:39:08;6.03;;;4.77;;
25982;SDS011;13773;48.868;10.730;2023-05-29T05:41:34;5.03;;;4.53;;
25982;SDS011;13773;48.868;10.730;2023-05-29T05:43:59;5.63;;;4.28;;
25982;SDS011;13773;48.868;10.730;2023-05-29T05:46:25;5.00;;;3.90;;
25982;SDS011;13773;48.868;10.730;2023-05-29T05:48:51;5.70;;;4.45;;
25982;SDS011;13773;48.868;10.730;2023-05-29T05:51:17;3.42;;;3.05;;
25982;SDS011;13773;48.868;10.730;2023-05-29T05:53:43;5.75;;;4.05;;
25982;SDS011;13773;48.868;10.730;2023-05-29T05:56:08;4.18;;;3.40;;
25982;SDS011;13773;48.868;10.730;2023-05-29T05:58:34;6.72;;;3.42;;
25982;SDS011;13773;48.868;10.730;2023-05-29T06:01:00;4.40;;;3.58;;
25982;SDS011;13773;48.868;10.730;2023-05-29T06:03:26;5.45;;;3.53;;
25982;SDS011;13773;48.868;10.730;2023-05-29T06:05:52;5.30;;;3.50;;
25982;SDS011;13773;48.868;10.730;2023-05-29T06:08:19;3.80;;;3.10;;
25982;SDS011;13773;48.868;10.730;2023-05-29T06:10:45;5.03;;;3.63;;
25982;SDS011;13773;48.868;10.730;2023-05-29T06:13:11;6.17;;;3.37;;
25982;SDS011;13773;48.868;10.730;2023-05-29T06:15:37;5.80;;;3.33;;
25982;SDS011;13773;48.868;10.730;2023-05-29T06:18:03;4.93;;;3.57;;
25982;SDS011;13773;48.868;10.730;2023-05-29T06:20:30;4.30;;;3.13;;
25982;SDS011;13773;48.868;10.730;2023-05-29T06:22:55;6.43;;;3.63;;
25982;SDS011;13773;48.868;10.730;2023-05-29T06:25:21;5.03;;;3.20;;
25982;SDS011;13773;48.868;10.730;2023-05-29T06:27:54;5.50;;;3.27;;
25982;SDS011;13773;48.868;10.730;2023-05-29T06:30:20;6.40;;;3.77;;
25982;SDS011;13773;48.868;10.730;2023-05-29T06:32:46;4.77;;;3.80;;
25982;SDS011;13773;48.868;10.730;2023-05-29T06:35:11;5.97;;;3.50;;
25982;SDS011;13773;48.868;10.730;2023-05-29T06:37:37;4.57;;;3.60;;
25982;SDS011;13773;48.868;10.730;2023-05-29T06:40:03;4.97;;;3.40;;
25982;SDS011;13773;48.868;10.730;2023-05-29T06:42:29;4.23;;;3.37;;
25982;SDS011;13773;48.868;10.730;2023-05-29T06:44:58;7.03;;;3.30;;
25982;SDS011;13773;48.868;10.730;2023-05-29T06:47:24;5.90;;;3.20;;
25982;SDS011;13773;48.868;10.730;2023-05-29T06:49:50;4.17;;;3.07;;
25982;SDS011;13773;48.868;10.730;2023-05-29T06:52:15;4.60;;;3.50;;
25982;SDS011;13773;48.868;10.730;2023-05-29T06:54:41;5.20;;;3.97;;
25982;SDS011;13773;48.868;10.730;2023-05-29T06:57:07;4.03;;;3.27;;
25982;SDS011;13773;48.868;10.730;2023-05-29T06:59:34;5.00;;;3.63;;
25982;SDS011;13773;48.868;10.730;2023-05-29T07:02:00;5.50;;;3.47;;
25982;SDS011;13773;48.868;10.730;2023-05-29T07:04:26;4.77;;;3.50;;
25982;SDS011;13773;48.868;10.730;2023-05-29T07:06:52;4.17;;;3.10;;
25982;SDS011;13773;48.868;10.730;2023-05-29T07:09:17;4.60;;;3.40;;
25982;SDS011;13773;48.868;10.730;2023-05-29T07:11:43;5.07;;;3.50;;
25982;SDS011;13773;48.868;10.730;2023-05-29T07:14:09;6.77;;;3.63;;
25982;SDS011;13773;48.868;10.730;2023-05-29T07:16:35;5.60;;;3.40;;
25982;SDS011;13773;48.868;10.730;2023-05-29T07:19:00;5.63;;;3.30;;
25982;SDS011;13773;48.868;10.730;2023-05-29T07:21:26;3.80;;;3.00;;
25982;SDS011;13773;48.868;10.730;2023-05-29T07:23:52;4.77;;;3.13;;
25982;SDS011;13773;48.868;10.730;2023-05-29T07:26:18;5.17;;;3.43;;
25982;SDS011;13773;48.868;10.730;2023-05-29T07:28:43;4.00;;;3.53;;
25982;SDS011;13773;48.868;10.730;2023-05-29T07:31:09;5.80;;;2.90;;
25982;SDS011;13773;48.868;10.730;2023-05-29T07:33:35;4.13;;;2.77;;
25982;SDS011;13773;48.868;10.730;2023-05-29T07:36:00;5.97;;;3.30;;
25982;SDS011;13773;48.868;10.730;2023-05-29T07:38:26;5.63;;;3.30;;
25982;SDS011;13773;48.868;10.730;2023-05-29T07:40:52;5.40;;;3.10;;
25982;SDS011;13773;48.868;10.730;2023-05-29T07:43:17;5.83;;;3.77;;
25982;SDS011;13773;48.868;10.730;2023-05-29T07:45:43;5.53;;;3.50;;
25982;SDS011;13773;48.868;10.730;2023-05-29T07:48:09;4.37;;;3.23;;
25982;SDS011;13773;48.868;10.730;2023-05-29T07:50:35;4.30;;;3.40;;
25982;SDS011;13773;48.868;10.730;2023-05-29T07:53:02;4.67;;;3.00;;
25982;SDS011;13773;48.868;10.730;2023-05-29T07:55:27;4.13;;;3.00;;
25982;SDS011;13773;48.868;10.730;2023-05-29T07:57:53;5.93;;;3.23;;
25982;SDS011;13773;48.868;10.730;2023-05-29T08:00:19;5.40;;;3.10;;
25982;SDS011;13773;48.868;10.730;2023-05-29T08:02:44;7.40;;;3.77;;
25982;SDS011;13773;48.868;10.730;2023-05-29T08:05:10;5.13;;;3.73;;
25982;SDS011;13773;48.868;10.730;2023-05-29T08:07:36;6.63;;;3.33;;
25982;SDS011;13773;48.868;10.730;2023-05-29T08:10:02;4.20;;;3.27;;
25982;SDS011;13773;48.868;10.730;2023-05-29T08:12:30;5.13;;;3.23;;
25982;SDS011;13773;48.868;10.730;2023-05-29T08:14:56;5.17;;;3.20;;
25982;SDS011;13773;48.868;10.730;2023-05-29T08:17:21;5.07;;;3.03;;
25982;SDS011;13773;48.868;10.730;2023-05-29T08:19:47;4.57;;;3.17;;
25982;SDS011;13773;48.868;10.730;2023-05-29T08:22:14;6.03;;;2.90;;
25982;SDS011;13773;48.868;10.730;2023-05-29T08:24:40;5.37;;;3.60;;
25982;SDS011;13773;48.868;10.730;2023-05-29T08:27:06;4.53;;;3.23;;
25982;SDS011;13773;48.868;10.730;2023-05-29T08:29:31;5.33;;;3.10;;
25982;SDS011;13773;48.868;10.730;2023-05-29T08:31:57;5.60;;;3.47;;
25982;SDS011;13773;48.868;10.730;2023-05-29T08:34:23;5.87;;;3.17;;
25982;SDS011;13773;48.868;10.730;2023-05-29T08:36:49;4.90;;;3.60;;
25982;SDS011;13773;48.868;10.730;2023-05-29T08:39:16;4.43;;;3.37;;
25982;SDS011;13773;48.868;10.730;2023-05-29T08:44:32;4.47;;;3.47;;
25982;SDS011;13773;48.868;10.730;2023-05-29T08:47:01;5.20;;;3.63;;
25982;SDS011;13773;48.868;10.730;2023-05-29T08:49:34;5.57;;;3.10;;
25982;SDS011;13773;48.868;10.730;2023-05-29T08:52:16;4.30;;;2.97;;
25982;SDS011;13773;48.868;10.730;2023-05-29T08:54:43;4.33;;;3.00;;
25982;SDS011;13773;48.868;10.730;2023-05-29T08:57:12;5.00;;;2.87;;
25982;SDS011;13773;48.868;10.730;2023-05-29T08:59:39;5.03;;;3.40;;
25982;SDS011;13773;48.868;10.730;2023-05-29T09:02:07;5.50;;;3.10;;
25982;SDS011;13773;48.868;10.730;2023-05-29T09:04:34;3.90;;;2.70;;
25982;SDS011;13773;48.868;10.730;2023-05-29T09:07:00;4.57;;;2.47;;
25982;SDS011;13773;48.868;10.730;2023-05-29T09:09:27;3.93;;;3.00;;
25982;SDS011;13773;48.868;10.730;2023-05-29T09:11:54;5.37;;;3.60;;
25982;SDS011;13773;48.868;10.730;2023-05-29T09:16:59;3.43;;;3.00;;
25982;SDS011;13773;48.868;10.730;2023-05-29T09:19:25;4.73;;;3.03;;
25982;SDS011;13773;48.868;10.730;2023-05-29T09:21:51;5.83;;;3.00;;
25982;SDS011;13773;48.868;10.730;2023-05-29T09:24:24;4.07;;;3.23;;
25982;SDS011;13773;48.868;10.730;2023-05-29T09:26:52;4.07;;;2.93;;
25982;SDS011;13773;48.868;10.730;2023-05-29T09:29:18;4.67;;;3.40;;
25982;SDS011;13773;48.868;10.730;2023-05-29T09:31:48;4.37;;;3.20;;
25982;SDS011;13773;48.868;10.730;2023-05-29T09:34:14;5.70;;;3.23;;
25982;SDS011;13773;48.868;10.730;2023-05-29T09:36:40;5.97;;;2.93;;
25982;SDS011;13773;48.868;10.730;2023-05-29T09:39:07;4.67;;;2.97;;
25982;SDS011;13773;48.868;10.730;2023-05-29T09:41:41;5.53;;;3.50;;
25982;SDS011;13773;48.868;10.730;2023-05-29T09:44:07;4.87;;;3.23;;
25982;SDS011;13773;48.868;10.730;2023-05-29T09:46:40;3.40;;;2.80;;
25982;SDS011;13773;48.868;10.730;2023-05-29T09:49:10;4.80;;;3.23;;
25982;SDS011;13773;48.868;10.730;2023-05-29T09:51:37;4.20;;;3.00;;
25982;SDS011;13773;48.868;10.730;2023-05-29T09:54:26;4.00;;;2.77;;
25982;SDS011;13773;48.868;10.730;2023-05-29T09:56:53;5.60;;;3.03;;
25982;SDS011;13773;48.868;10.730;2023-05-29T09:59:21;4.13;;;3.20;;
25982;SDS011;13773;48.868;10.730;2023-05-29T10:01:49;3.50;;;2.73;;
25982;SDS011;13773;48.868;10.730;2023-05-29T10:04:33;4.77;;;2.80;;
25982;SDS011;13773;48.868;10.730;2023-05-29T10:07:08;5.20;;;2.90;;
25982;SDS011;13773;48.868;10.730;2023-05-29T10:09:43;2.93;;;2.53;;
25982;SDS011;13773;48.868;10.730;2023-05-29T10:12:13;3.83;;;2.70;;
25982;SDS011;13773;48.868;10.730;2023-05-29T10:14:41;5.80;;;2.77;;
25982;SDS011;13773;48.868;10.730;2023-05-29T10:17:08;6.20;;;2.83;;
25982;SDS011;13773;48.868;10.730;2023-05-29T10:19:37;3.77;;;2.57;;
25982;SDS011;13773;48.868;10.730;2023-05-29T10:22:04;3.70;;;2.67;;
25982;SDS011;13773;48.868;10.730;2023-05-29T10:24:31;4.87;;;2.97;;
25982;SDS011;13773;48.868;10.730;2023-05-29T10:26:58;3.43;;;2.50;;
25982;SDS011;13773;48.868;10.730;2023-05-29T10:32:42;3.13;;;2.73;;
25982;SDS011;13773;48.868;10.730;2023-05-29T10:35:13;5.13;;;2.63;;
25982;SDS011;13773;48.868;10.730;2023-05-29T10:38:09;5.10;;;2.47;;
25982;SDS011;13773;48.868;10.730;2023-05-29T10:40:36;3.50;;;2.77;;
25982;SDS011;13773;48.868;10.730;2023-05-29T10:43:02;3.33;;;2.73;;
25982;SDS011;13773;48.868;10.730;2023-05-29T10:50:37;5.30;;;2.50;;
25982;SDS011;13773;48.868;10.730;2023-05-29T10:53:06;4.27;;;2.83;;
25982;SDS011;13773;48.868;10.730;2023-05-29T10:55:35;3.23;;;2.60;;
25982;SDS011;13773;48.868;10.730;2023-05-29T10:58:21;4.13;;;2.93;;
25982;SDS011;13773;48.868;10.730;2023-05-29T11:00:49;3.47;;;2.40;;
25982;SDS011;13773;48.868;10.730;2023-05-29T11:03:25;7.57;;;3.03;;
25982;SDS011;13773;48.868;10.730;2023-05-29T11:06:04;2.87;;;2.50;;
25982;SDS011;13773;48.868;10.730;2023-05-29T11:08:43;3.00;;;2.63;;
25982;SDS011;13773;48.868;10.730;2023-05-29T11:11:28;3.17;;;2.70;;
25982;SDS011;13773;48.868;10.730;2023-05-29T11:14:04;4.73;;;2.50;;
25982;SDS011;13773;48.868;10.730;2023-05-29T11:18:57;3.80;;;2.83;;
25982;SDS011;13773;48.868;10.730;2023-05-29T11:21:34;4.60;;;2.77;;
25982;SDS011;13773;48.868;10.730;2023-05-29T11:24:06;4.13;;;3.03;;
25982;SDS011;13773;48.868;10.730;2023-05-29T11:26:32;3.10;;;2.47;;
25982;SDS011;13773;48.868;10.730;2023-05-29T11:28:59;2.90;;;2.60;;
25982;SDS011;13773;48.868;10.730;2023-05-29T11:31:27;4.60;;;2.70;;
25982;SDS011;13773;48.868;10.730;2023-05-29T11:33:58;4.07;;;2.67;;
25982;SDS011;13773;48.868;10.730;2023-05-29T11:36:26;2.70;;;2.50;;
25982;SDS011;13773;48.868;10.730;2023-05-29T11:38:55;3.30;;;2.70;;
25982;SDS011;13773;48.868;10.730;2023-05-29T11:41:21;4.17;;;2.27;;
25982;SDS011;13773;48.868;10.730;2023-05-29T11:43:57;2.97;;;2.37;;
25982;SDS011;13773;48.868;10.730;2023-05-29T11:46:23;4.40;;;2.50;;
25982;SDS011;13773;48.868;10.730;2023-05-29T11:48:51;4.40;;;3.37;;
25982;SDS011;13773;48.868;10.730;2023-05-29T11:51:19;3.77;;;3.00;;
25982;SDS011;13773;48.868;10.730;2023-05-29T11:53:46;3.37;;;3.00;;
25982;SDS011;13773;48.868;10.730;2023-05-29T11:56:13;3.40;;;2.70;;
25982;SDS011;13773;48.868;10.730;2023-05-29T11:58:39;3.37;;;2.70;;
25982;SDS011;13773;48.868;10.730;2023-05-29T12:01:06;2.90;;;2.60;;
25982;SDS011;13773;48.868;10.730;2023-05-29T12:06:04;4.13;;;2.77;;
25982;SDS011;13773;48.868;10.730;2023-05-29T12:08:31;3.33;;;2.73;;
25982;SDS011;13773;48.868;10.730;2023-05-29T12:10:57;3.37;;;2.47;;
25982;SDS011;13773;48.868;10.730;2023-05-29T12:13:23;3.93;;;2.33;;
25982;SDS011;13773;48.868;10.730;2023-05-29T12:15:49;3.20;;;2.63;;
25982;SDS011;13773;48.868;10.730;2023-05-29T12:18:19;4.00;;;2.67;;
25982;SDS011;13773;48.868;10.730;2023-05-29T12:20:45;3.60;;;2.37;;
25982;SDS011;13773;48.868;10.730;2023-05-29T12:23:11;3.20;;;2.70;;
25982;SDS011;13773;48.868;10.730;2023-05-29T12:25:37;3.43;;;2.57;;
25982;SDS011;13773;48.868;10.730;2023-05-29T12:28:03;3.37;;;2.50;;
25982;SDS011;13773;48.868;10.730;2023-05-29T12:30:30;2.83;;;2.53;;
25982;SDS011;13773;48.868;10.730;2023-05-29T12:32:55;4.77;;;2.63;;
25982;SDS011;13773;48.868;10.730;2023-05-29T12:35:22;3.83;;;2.60;;
25982;SDS011;13773;48.868;10.730;2023-05-29T12:40:21;5.13;;;3.33;;
25982;SDS011;13773;48.868;10.730;2023-05-29T12:42:47;4.73;;;2.77;;
25982;SDS011;13773;48.868;10.730;2023-05-29T12:45:13;3.33;;;2.30;;
25982;SDS011;13773;48.868;10.730;2023-05-29T12:50:22;3.23;;;2.87;;
25982;SDS011;13773;48.868;10.730;2023-05-29T12:53:13;4.60;;;3.30;;
25982;SDS011;13773;48.868;10.730;2023-05-29T12:55:40;3.20;;;2.60;;
25982;SDS011;13773;48.868;10.730;2023-05-29T12:58:07;5.30;;;2.80;;
25982;SDS011;13773;48.868;10.730;2023-05-29T13:00:35;2.63;;;2.43;;
25982;SDS011;13773;48.868;10.730;2023-05-29T13:03:02;4.30;;;2.60;;
25982;SDS011;13773;48.868;10.730;2023-05-29T13:05:27;2.80;;;2.50;;
25982;SDS011;13773;48.868;10.730;2023-05-29T13:07:53;4.27;;;2.53;;
25982;SDS011;13773;48.868;10.730;2023-05-29T13:10:19;3.50;;;2.70;;
25982;SDS011;13773;48.868;10.730;2023-05-29T13:12:46;2.77;;;2.50;;
25982;SDS011;13773;48.868;10.730;2023-05-29T13:15:13;3.23;;;2.63;;
25982;SDS011;13773;48.868;10.730;2023-05-29T13:17:39;3.23;;;2.73;;
25982;SDS011;13773;48.868;10.730;2023-05-29T13:20:12;3.00;;;2.73;;
25982;SDS011;13773;48.868;10.730;2023-05-29T13:22:38;2.77;;;2.47;;
25982;SDS011;13773;48.868;10.730;2023-05-29T13:25:05;2.90;;;2.60;;
25982;SDS011;13773;48.868;10.730;2023-05-29T13:27:33;3.87;;;2.50;;
25982;SDS011;13773;48.868;10.730;2023-05-29T13:30:02;2.60;;;2.40;;
25982;SDS011;13773;48.868;10.730;2023-05-29T13:32:28;3.23;;;2.67;;
25982;SDS011;13773;48.868;10.730;2023-05-29T13:34:54;2.90;;;2.60;;
25982;SDS011;13773;48.868;10.730;2023-05-29T13:37:20;2.83;;;2.60;;
25982;SDS011;13773;48.868;10.730;2023-05-29T13:39:46;2.97;;;2.67;;
25982;SDS011;13773;48.868;10.730;2023-05-29T13:42:12;3.30;;;2.53;;
25982;SDS011;13773;48.868;10.730;2023-05-29T13:44:38;2.87;;;2.13;;
25982;SDS011;13773;48.868;10.730;2023-05-29T13:47:05;3.40;;;2.33;;
25982;SDS011;13773;48.868;10.730;2023-05-29T13:49:32;3.10;;;2.43;;
25982;SDS011;13773;48.868;10.730;2023-05-29T13:51:58;3.90;;;2.90;;
25982;SDS011;13773;48.868;10.730;2023-05-29T13:54:23;3.73;;;2.30;;
25982;SDS011;13773;48.868;10.730;2023-05-29T13:56:49;2.87;;;2.50;;
25982;SDS011;13773;48.868;10.730;2023-05-29T13:59:15;3.20;;;2.43;;
25982;SDS011;13773;48.868;10.730;2023-05-29T14:01:41;3.40;;;2.80;;
25982;SDS011;13773;48.868;10.730;2023-05-29T14:04:06;4.20;;;2.60;;
25982;SDS011;13773;48.868;10.730;2023-05-29T14:06:32;3.50;;;2.50;;
25982;SDS011;13773;48.868;10.730;2023-05-29T14:08:58;2.83;;;2.53;;
25982;SDS011;13773;48.868;10.730;2023-05-29T14:11:24;2.87;;;2.33;;
25982;SDS011;13773;48.868;10.730;2023-05-29T14:13:51;3.10;;;2.23;;
25982;SDS011;13773;48.868;10.730;2023-05-29T14:16:18;4.20;;;2.40;;
25982;SDS011;13773;48.868;10.730;2023-05-29T14:18:44;2.83;;;2.25;;
25982;SDS011;13773;48.868;10.730;2023-05-29T14:21:10;4.27;;;2.50;;
25982;SDS011;13773;48.868;10.730;2023-05-29T14:23:37;3.43;;;2.27;;
25982;SDS011;13773;48.868;10.730;2023-05-29T14:26:03;2.37;;;2.17;;
25982;SDS011;13773;48.868;10.730;2023-05-29T14:28:29;2.70;;;2.33;;
25982;SDS011;13773;48.868;10.730;2023-05-29T14:30:55;2.60;;;2.33;;
25982;SDS011;13773;48.868;10.730;2023-05-29T14:33:20;2.70;;;2.23;;
25982;SDS011;13773;48.868;10.730;2023-05-29T14:35:46;3.50;;;2.40;;
25982;SDS011;13773;48.868;10.730;2023-05-29T14:38:12;3.83;;;2.27;;
25982;SDS011;13773;48.868;10.730;2023-05-29T14:40:37;3.80;;;2.70;;
25982;SDS011;13773;48.868;10.730;2023-05-29T14:43:03;2.50;;;2.30;;
25982;SDS011;13773;48.868;10.730;2023-05-29T14:45:29;5.15;;;2.78;;
25982;SDS011;13773;48.868;10.730;2023-05-29T14:47:55;3.10;;;2.53;;
25982;SDS011;13773;48.868;10.730;2023-05-29T14:50:21;5.82;;;2.90;;
25982;SDS011;13773;48.868;10.730;2023-05-29T14:52:46;2.90;;;2.60;;
25982;SDS011;13773;48.868;10.730;2023-05-29T14:55:15;2.88;;;2.35;;
25982;SDS011;13773;48.868;10.730;2023-05-29T14:57:41;3.05;;;2.58;;
25982;SDS011;13773;48.868;10.730;2023-05-29T15:00:07;3.83;;;2.63;;
25982;SDS011;13773;48.868;10.730;2023-05-29T15:02:33;3.50;;;2.93;;
25982;SDS011;13773;48.868;10.730;2023-05-29T15:04:59;3.10;;;2.80;;
25982;SDS011;13773;48.868;10.730;2023-05-29T15:07:25;4.03;;;3.17;;